Time;durP1;ratioP1;P1;durP2;ratioP2;P2;SDS_P1;SDS_P2;PMS_P1;PMS_P2;Temp;Humidity;BMP_temperature;BMP_pressure;BME280_temperature;BME280_humidity;BME280_pressure;Samples;Min_cycle;Max_cycle;Signal;HPM_P1;HPM_P2
2023/03/08 00:01:23;;;;;;;;;;;12.00;96.60;;;;;;4591677;19;20007;-25
2023/03/08 00:02:56;;;;;;;28.43;17.73;;;12.00;96.80;;;;;;4590674;19;19947;-28
2023/03/08 00:04:28;;;;;;;22.17;16.13;;;12.00;96.60;;;;;;4589820;19;20456;-28
2023/03/08 00:06:05;;;;;;;27.53;19.23;;;12.00;96.60;;;;;;4590335;19;20433;-26
2023/03/08 00:07:37;;;;;;;29.80;21.07;;;12.00;96.60;;;;;;4590515;19;20469;-28
2023/03/08 00:09:08;;;;;;;;;;;11.90;96.60;;;;;;4591316;19;20441;-29
2023/03/08 00:10:39;;;;;;;18.47;13.00;;;11.80;96.70;;;;;;4590337;19;20350;-27
2023/03/08 00:12:10;;;;;;;37.50;22.08;;;11.80;96.70;;;;;;4590249;19;20818;-29
2023/03/08 00:13:43;;;;;;;20.90;14.57;;;11.70;96.80;;;;;;4590164;19;20479;-27
2023/03/08 00:15:14;;;;;;;18.75;14.43;;;11.80;96.90;;;;;;4589188;19;20466;-27
2023/03/08 00:16:46;;;;;;;27.37;18.80;;;11.80;97.00;;;;;;4589993;19;20074;-25
2023/03/08 00:18:18;;;;;;;;;;;11.80;97.00;;;;;;4590379;19;20445;-27
2023/03/08 00:19:50;;;;;;;19.80;14.50;;;11.90;97.00;;;;;;4590484;19;20301;-25
2023/03/08 00:21:22;;;;;;;18.77;13.23;;;12.00;96.70;;;;;;4589911;19;20018;-28
2023/03/08 00:22:53;;;;;;;25.25;17.95;;;12.00;96.60;;;;;;4590051;19;20468;-24
2023/03/08 00:24:25;;;;;;;22.90;16.08;;;12.00;96.50;;;;;;4590272;19;20010;-26
2023/03/08 00:25:57;;;;;;;20.97;15.27;;;12.00;96.50;;;;;;4590518;19;20016;-27
2023/03/08 00:27:28;;;;;;;24.45;16.92;;;11.90;96.50;;;;;;4590015;19;20437;-28
2023/03/08 00:29:00;;;;;;;26.63;18.92;;;12.00;96.50;;;;;;4589924;19;20011;-27
2023/03/08 00:30:32;;;;;;;20.40;15.97;;;11.90;96.50;;;;;;4589968;19;20029;-28
2023/03/08 00:32:04;;;;;;;24.85;17.95;;;11.90;96.40;;;;;;4590084;19;20501;-27
2023/03/08 00:33:37;;;;;;;30.15;21.98;;;11.90;96.40;;;;;;4589668;19;20466;-24
2023/03/08 00:35:09;;;;;;;23.13;17.17;;;11.90;96.50;;;;;;4589840;19;20018;-27
2023/03/08 00:36:42;;;;;;;23.27;17.03;;;11.90;96.50;;;;;;4590001;19;20437;-27
2023/03/08 00:38:13;;;;;;;17.60;13.68;;;11.90;96.50;;;;;;4587244;19;20472;-26
2023/03/08 00:39:48;;;;;;;22.50;16.58;;;11.90;96.60;;;;;;4588303;19;20491;-27
2023/03/08 00:41:21;;;;;;;25.60;17.57;;;11.90;96.60;;;;;;4588702;19;20543;-27
2023/03/08 00:42:52;;;;;;;27.20;16.73;;;11.80;96.50;;;;;;4589378;19;20429;-27
2023/03/08 00:44:24;;;;;;;23.13;16.73;;;11.90;96.50;;;;;;4589675;19;20413;-25
2023/03/08 00:45:55;;;;;;;23.45;16.83;;;11.90;96.40;;;;;;4589812;19;20028;-28
2023/03/08 00:47:28;;;;;;;23.67;17.93;;;11.90;96.50;;;;;;4589576;19;20022;-29
2023/03/08 00:49:00;;;;;;;23.90;17.27;;;11.90;96.40;;;;;;4589022;19;20436;-27
2023/03/08 00:50:31;;;;;;;22.73;16.42;;;11.90;96.30;;;;;;4589219;19;20441;-27
2023/03/08 00:52:03;;;;;;;20.23;14.35;;;11.90;96.30;;;;;;4589783;19;20468;-27
2023/03/08 00:53:36;;;;;;;20.77;15.87;;;11.80;96.40;;;;;;4589816;19;20011;-27
2023/03/08 00:55:08;;;;;;;17.77;13.30;;;11.80;96.40;;;;;;4589680;19;20437;-27
2023/03/08 00:56:41;;;;;;;20.67;15.77;;;11.80;96.30;;;;;;4589536;19;20006;-28
2023/03/08 00:58:15;;;;;;;23.47;15.83;;;11.90;96.30;;;;;;4589133;19;20437;-26
2023/03/08 00:59:46;;;;;;;;;;;11.90;96.30;;;;;;4589151;19;20441;-27
2023/03/08 01:01:19;;;;;;;23.27;15.47;;;11.90;96.40;;;;;;4589637;19;19974;-27
2023/03/08 01:02:52;;;;;;;18.17;14.10;;;11.90;96.30;;;;;;4589357;19;20425;-27
2023/03/08 01:04:25;;;;;;;19.23;14.93;;;11.90;96.30;;;;;;4589427;19;20424;-29
2023/03/08 01:06:04;;;;;;;16.33;13.33;;;11.80;96.30;;;;;;4589767;19;20469;-28
2023/03/08 01:07:35;;;;;;;22.80;15.63;;;11.80;96.30;;;;;;4588493;19;20504;-25
2023/03/08 01:09:08;;;;;;;21.13;14.93;;;11.80;96.20;;;;;;4589150;19;21158;-28
2023/03/08 01:10:49;;;;;;;23.37;15.77;;;11.90;96.20;;;;;;4589408;19;20421;-27
2023/03/08 01:12:22;;;;;;;23.03;15.40;;;11.90;96.20;;;;;;4589469;19;20405;-29
2023/03/08 01:13:54;;;;;;;19.20;13.40;;;11.90;96.20;;;;;;4589047;19;20516;-26
2023/03/08 01:15:27;;;;;;;22.73;15.30;;;11.80;96.10;;;;;;4589122;19;20421;-27
2023/03/08 01:16:58;;;;;;;23.75;16.65;;;11.70;96.30;;;;;;4593306;19;20499;-26
2023/03/08 01:18:31;;;;;;;24.37;17.97;;;11.70;96.40;;;;;;4592843;19;20010;-27
2023/03/08 01:20:03;;;;;;;21.17;17.80;;;11.70;96.30;;;;;;4594242;19;20892;-28
2023/03/08 01:21:37;;;;;;;26.53;19.17;;;11.80;96.40;;;;;;4592818;19;20540;-25
2023/03/08 01:23:10;;;;;;;21.27;15.80;;;11.80;96.40;;;;;;4593481;19;20456;-27
2023/03/08 01:24:46;;;;;;;39.37;25.10;;;11.80;96.30;;;;;;4593611;19;20433;-26
2023/03/08 01:26:20;;;;;;;24.80;17.10;;;11.80;96.40;;;;;;4594236;19;20425;-27
2023/03/08 01:27:51;;;;;;;25.67;19.87;;;11.80;96.30;;;;;;4593696;19;20432;-26
2023/03/08 01:29:23;;;;;;;23.00;17.45;;;11.80;96.20;;;;;;4593719;19;21020;-27
2023/03/08 01:31:04;;;;;;;17.40;14.30;;;11.80;96.30;;;;;;4593605;19;20010;-25
2023/03/08 01:32:37;;;;;;;22.27;17.25;;;11.80;96.30;;;;;;4594108;19;20408;-27
2023/03/08 01:34:08;;;;;;;21.35;17.23;;;11.80;96.20;;;;;;4592233;19;20028;-28
2023/03/08 01:35:39;;;;;;;21.58;15.02;;;11.80;96.20;;;;;;4592691;19;20014;-28
2023/03/08 01:37:12;;;;;;;16.93;12.87;;;11.70;96.20;;;;;;4592672;19;20010;-27
2023/03/08 01:38:43;;;;;;;15.90;13.15;;;11.80;96.20;;;;;;4591945;19;21062;-27
2023/03/08 01:40:16;;;;;;;23.10;14.37;;;11.70;96.10;;;;;;4593468;19;20070;-27
2023/03/08 01:41:49;;;;;;;20.77;14.60;;;11.70;96.10;;;;;;4593538;19;20563;-28
2023/03/08 01:43:36;;;;;;;17.60;11.88;;;11.70;96.20;;;;;;4592488;19;20433;-27
2023/03/08 01:45:45;;;;;;;29.90;18.90;;;11.70;96.20;;;;;;4593358;19;20010;-26
2023/03/08 01:47:22;;;;;;;21.17;14.27;;;11.70;96.30;;;;;;4593622;19;20441;-30
2023/03/08 01:48:57;;;;;;;18.10;12.60;;;11.70;96.20;;;;;;4593422;19;20445;-27
2023/03/08 01:50:28;;;;;;;21.87;15.13;;;11.70;96.10;;;;;;4592816;19;20429;-27
2023/03/08 01:52:05;;;;;;;17.02;12.60;;;11.70;96.00;;;;;;4592308;19;20532;-28
2023/03/08 01:53:38;;;;;;;18.60;12.93;;;11.70;96.00;;;;;;4592417;19;20464;-26
2023/03/08 01:55:09;;;;;;;14.20;11.40;;;11.70;95.90;;;;;;4592910;19;20532;-28
2023/03/08 01:56:41;;;;;;;14.90;13.20;;;11.70;95.90;;;;;;4592150;19;20010;-25
2023/03/08 01:58:14;;;;;;;12.80;10.30;;;11.70;95.90;;;;;;4591318;19;20437;-26
2023/03/08 01:59:47;;;;;;;12.90;10.23;;;11.70;95.90;;;;;;4591076;19;20827;-27
2023/03/08 02:01:19;;;;;;;14.37;10.90;;;11.70;96.00;;;;;;4591925;19;21163;-28
2023/03/08 02:02:53;;;;;;;14.43;11.90;;;11.70;95.90;;;;;;4592599;19;20815;-26
2023/03/08 02:04:25;;;;;;;15.83;10.23;;;11.60;95.90;;;;;;4593075;19;20437;-27
2023/03/08 02:05:56;;;;;;;12.13;10.63;;;11.60;95.80;;;;;;4592116;19;20464;-28
2023/03/08 02:07:28;;;;;;;15.75;11.75;;;11.60;95.90;;;;;;4591830;19;20491;-27
2023/03/08 02:09:03;;;;;;;23.48;16.13;;;11.60;96.00;;;;;;4591995;19;20014;-29
2023/03/08 02:10:35;;;;;;;13.47;10.57;;;11.60;96.00;;;;;;4591659;19;20500;-29
2023/03/08 02:12:09;;;;;;;13.40;11.43;;;11.60;95.80;;;;;;4592034;19;20421;-26
2023/03/08 02:13:42;;;;;;;13.03;9.43;;;11.60;95.80;;;;;;4591632;19;20467;-24
2023/03/08 02:15:15;;;;;;;15.20;10.90;;;11.60;95.70;;;;;;4592307;19;20467;-31
2023/03/08 02:16:46;;;;;;;12.83;9.73;;;11.60;95.70;;;;;;4591497;19;20014;-26
2023/03/08 02:18:17;;;;;;;12.35;9.65;;;11.60;95.70;;;;;;4591860;19;20449;-28
2023/03/08 02:19:50;;;;;;;;;;;11.60;95.60;;;;;;4593670;19;20018;-28
2023/03/08 02:21:22;;;;;;;11.83;9.87;;;11.60;95.70;;;;;;4591421;19;19919;-27
2023/03/08 02:22:55;;;;;;;10.40;8.97;;;11.60;95.60;;;;;;4591691;19;20425;-25
2023/03/08 02:24:26;;;;;;;14.98;9.32;;;11.70;95.50;;;;;;4592625;19;20491;-26
2023/03/08 02:26:03;;;;;;;10.00;8.43;;;11.70;95.50;;;;;;4592288;19;20010;-27
2023/03/08 02:27:35;;;;;;;12.83;8.83;;;11.70;95.40;;;;;;4592573;19;21016;-28
2023/03/08 02:29:07;;;;;;;12.57;9.30;;;11.60;95.30;;;;;;4592250;19;20429;-26
2023/03/08 02:30:40;;;;;;;12.00;9.00;;;11.70;95.30;;;;;;4591365;19;20432;-27
2023/03/08 02:32:11;;;;;;;11.18;8.18;;;11.60;95.20;;;;;;4592167;19;20421;-28
2023/03/08 02:33:43;;;;;;;;;;;11.70;95.20;;;;;;4592636;19;20460;-31
2023/03/08 02:35:14;;;;;;;10.57;7.60;;;11.70;95.20;;;;;;4592815;19;20344;-29
2023/03/08 02:36:46;;;;;;;11.37;7.80;;;11.70;95.00;;;;;;4592152;19;20469;-28
2023/03/08 02:38:19;;;;;;;9.93;7.72;;;11.70;94.80;;;;;;4590582;19;20445;-27
2023/03/08 02:39:50;;;;;;;10.68;7.32;;;11.70;94.80;;;;;;4592014;19;20010;-26
2023/03/08 02:41:22;;;;;;;9.23;6.97;;;11.70;94.80;;;;;;4591120;19;20385;-25
2023/03/08 02:42:55;;;;;;;9.20;7.07;;;11.70;94.80;;;;;;4591744;19;20797;-27
2023/03/08 02:44:28;;;;;;;10.13;6.63;;;11.60;94.70;;;;;;4592028;19;20476;-30
2023/03/08 02:45:59;;;;;;;9.35;6.75;;;11.70;94.70;;;;;;4592274;19;21041;-28
2023/03/08 02:47:31;;;;;;;11.37;7.57;;;11.60;94.80;;;;;;4592504;19;20472;-27
2023/03/08 02:49:04;;;;;;;11.30;7.73;;;11.70;94.60;;;;;;4592002;19;20471;-28
2023/03/08 02:50:35;;;;;;;11.07;6.82;;;11.70;94.50;;;;;;4569468;19;20472;-27
2023/03/08 02:52:07;;;;;;;9.27;6.88;;;11.80;94.70;;;;;;4591236;19;20010;-26
2023/03/08 02:53:38;;;;;;;11.38;6.93;;;11.80;94.40;;;;;;4592069;19;20340;-28
2023/03/08 02:55:10;;;;;;;8.60;5.72;;;11.90;94.30;;;;;;4591928;19;20488;-24
2023/03/08 02:56:42;;;;;;;8.00;6.00;;;11.80;94.10;;;;;;4592082;19;20464;-27
2023/03/08 02:58:13;;;;;;;9.57;6.55;;;11.80;94.10;;;;;;4591655;19;20433;-27
2023/03/08 02:59:44;;;;;;;8.18;5.75;;;11.80;94.10;;;;;;4590499;19;20018;-26
2023/03/08 03:01:16;;;;;;;9.93;6.47;;;11.80;94.00;;;;;;4591774;19;20022;-27
2023/03/08 03:02:47;;;;;;;12.52;7.03;;;11.70;94.00;;;;;;4590837;19;20011;-27
2023/03/08 03:04:20;;;;;;;8.60;6.33;;;11.70;94.00;;;;;;4591709;19;20015;-29
2023/03/08 03:05:51;;;;;;;11.30;7.10;;;11.70;94.00;;;;;;4591590;19;20448;-31
2023/03/08 03:07:26;;;;;;;9.43;7.27;;;11.70;94.10;;;;;;4591984;19;20017;-30
2023/03/08 03:08:59;;;;;;;9.57;7.47;;;11.70;94.00;;;;;;4591653;19;20444;-26
2023/03/08 03:10:31;;;;;;;9.07;6.82;;;11.70;94.00;;;;;;4592016;19;20459;-24
2023/03/08 03:12:04;;;;;;;10.17;6.47;;;11.70;94.00;;;;;;4590606;19;20061;-27
2023/03/08 03:13:35;;;;;;;8.63;5.72;;;11.70;93.90;;;;;;4591292;19;20433;-27
2023/03/08 03:15:09;;;;;;;7.43;5.40;;;11.70;93.80;;;;;;4591377;19;20010;-25
2023/03/08 03:16:42;;;;;;;7.07;5.40;;;11.70;93.80;;;;;;4592067;19;20530;-27
2023/03/08 03:18:15;;;;;;;9.03;5.93;;;11.80;93.80;;;;;;4591128;19;20533;-28
2023/03/08 03:19:46;;;;;;;7.43;5.40;;;11.70;93.70;;;;;;4591596;19;20452;-26
2023/03/08 03:21:17;;;;;;;8.27;5.47;;;11.70;93.70;;;;;;4590596;19;20045;-26
2023/03/08 03:22:50;;;;;;;6.90;4.37;;;11.70;93.60;;;;;;4591355;19;20007;-26
2023/03/08 03:24:22;;;;;;;;;;;11.60;93.50;;;;;;4592520;19;20488;-24
2023/03/08 03:25:53;;;;;;;7.53;5.47;;;11.60;93.60;;;;;;4591379;19;19926;-25
2023/03/08 03:27:25;;;;;;;8.40;5.10;;;11.60;93.50;;;;;;4591539;19;20011;-27
2023/03/08 03:28:57;;;;;;;7.80;4.53;;;11.60;93.50;;;;;;4590822;19;20718;-26
2023/03/08 03:30:29;;;;;;;8.73;5.25;;;11.60;93.20;;;;;;4591123;19;20420;-26
2023/03/08 03:32:02;;;;;;;6.87;4.50;;;11.60;93.20;;;;;;4591196;19;20507;-25
2023/03/08 03:33:34;;;;;;;8.77;5.07;;;11.60;93.10;;;;;;4591046;19;20472;-27
2023/03/08 03:35:05;;;;;;;6.40;4.32;;;11.60;93.00;;;;;;4591242;19;20527;-27
2023/03/08 03:36:37;;;;;;;6.87;5.40;;;11.60;92.90;;;;;;4591191;19;20014;-28
2023/03/08 03:38:09;;;;;;;7.68;5.18;;;11.70;93.00;;;;;;4590718;19;20441;-25
2023/03/08 03:39:40;;;;;;;9.95;5.50;;;11.70;92.80;;;;;;4589832;19;20034;-30
2023/03/08 03:41:13;;;;;;;7.65;4.40;;;11.70;92.80;;;;;;4590875;19;20002;-25
2023/03/08 03:42:48;;;;;;;8.53;5.40;;;11.60;92.70;;;;;;4591154;19;20475;-26
2023/03/08 03:44:19;;;;;;;7.20;4.60;;;11.50;92.70;;;;;;4590938;19;20836;-26
2023/03/08 03:45:57;;;;;;;6.85;4.45;;;11.60;92.50;;;;;;4590936;19;20437;-25
2023/03/08 03:47:30;;;;;;;9.00;5.07;;;11.60;92.50;;;;;;4590935;19;20014;-27
2023/03/08 03:49:03;;;;;;;8.13;5.40;;;11.60;92.60;;;;;;4590948;19;20437;-25
2023/03/08 03:50:34;;;;;;;11.68;5.47;;;11.60;92.50;;;;;;4590937;19;20436;-27
2023/03/08 03:52:06;;;;;;;7.80;4.67;;;11.60;92.40;;;;;;4591419;19;20020;-25
2023/03/08 03:53:38;;;;;;;7.95;5.72;;;11.60;92.40;;;;;;4590661;19;20445;-28
2023/03/08 03:55:09;;;;;;;7.70;5.47;;;11.70;92.40;;;;;;4590929;19;20022;-28
2023/03/08 03:56:40;;;;;;;7.60;4.78;;;11.70;92.20;;;;;;4589893;19;20019;-29
2023/03/08 03:58:13;;;;;;;9.60;4.83;;;11.60;92.00;;;;;;4589890;19;20022;-27
2023/03/08 03:59:44;;;;;;;9.15;5.35;;;11.60;91.90;;;;;;4588339;19;20540;-24
2023/03/08 04:01:23;;;;;;;8.50;5.20;;;11.60;91.90;;;;;;4590135;19;20022;-29
2023/03/08 04:02:54;;;;;;;9.03;4.60;;;11.60;92.00;;;;;;4590758;19;20397;-25
2023/03/08 04:04:27;;;;;;;8.80;4.97;;;11.60;91.80;;;;;;4590914;19;20455;-26
2023/03/08 04:06:06;;;;;;;9.60;4.78;;;11.50;91.60;;;;;;4590490;19;20437;-27
2023/03/08 04:07:38;;;;;;;8.40;5.03;;;11.40;92.00;;;;;;4590534;19;20018;-26
2023/03/08 04:09:15;;;;;;;11.63;6.80;;;11.40;92.00;;;;;;4589293;19;20417;-28
2023/03/08 04:10:47;;;;;;;9.03;4.30;;;11.40;92.40;;;;;;4590564;19;20439;-27
2023/03/08 04:12:18;;;;;;;7.80;4.65;;;11.40;92.50;;;;;;4590280;19;20444;-28
2023/03/08 04:13:50;;;;;;;8.77;4.78;;;11.40;92.70;;;;;;4590079;19;20010;-26
2023/03/08 04:15:22;;;;;;;7.50;5.33;;;11.50;92.80;;;;;;4590541;19;20013;-29
2023/03/08 04:16:54;;;;;;;7.50;4.63;;;11.60;92.60;;;;;;4590305;19;20468;-28
2023/03/08 04:18:25;;;;;;;8.52;4.22;;;11.60;92.50;;;;;;4589979;19;20041;-28
2023/03/08 04:19:56;;;;;;;9.88;5.43;;;11.60;92.10;;;;;;4590428;19;20007;-31
2023/03/08 04:21:42;;;;;;;10.47;4.97;;;11.70;92.10;;;;;;4590009;19;19998;-27
2023/03/08 04:23:14;;;;;;;9.65;5.32;;;11.70;91.80;;;;;;4590643;19;20532;-28
2023/03/08 04:24:46;;;;;;;9.80;5.37;;;11.70;91.70;;;;;;4590184;19;20033;-26
2023/03/08 04:26:17;;;;;;;9.48;4.75;;;11.70;91.90;;;;;;4590192;19;20476;-28
2023/03/08 04:27:48;;;;;;;9.50;5.13;;;11.60;91.90;;;;;;4590178;19;20485;-26
2023/03/08 04:29:20;;;;;;;8.30;5.97;;;11.60;91.90;;;;;;4590012;19;20011;-25
2023/03/08 04:30:51;;;;;;;16.40;7.35;;;11.60;91.90;;;;;;4589000;19;20014;-28
2023/03/08 04:32:22;;;;;;;11.93;6.95;;;11.60;91.90;;;;;;4589833;19;20029;-29
2023/03/08 04:33:54;;;;;;;10.32;5.82;;;11.60;91.90;;;;;;4589808;19;20018;-26
2023/03/08 04:35:25;;;;;;;9.30;5.43;;;11.60;91.80;;;;;;4590032;19;20015;-27
2023/03/08 04:36:56;;;;;;;10.48;5.38;;;11.60;91.90;;;;;;4590128;19;20011;-25
2023/03/08 04:38:28;;;;;;;10.23;5.97;;;11.60;91.80;;;;;;4589797;19;20040;-27
2023/03/08 04:40:00;;;;;;;10.73;5.65;;;11.60;91.90;;;;;;4589833;19;20010;-25
2023/03/08 04:41:31;;;;;;;8.82;5.50;;;11.50;91.90;;;;;;4590793;19;20098;-27
2023/03/08 04:43:02;;;;;;;10.48;6.30;;;11.60;91.90;;;;;;4589916;19;20014;-29
2023/03/08 04:44:34;;;;;;;9.25;6.10;;;11.60;92.00;;;;;;4589664;19;20018;-27
2023/03/08 04:46:05;;;;;;;10.50;6.50;;;11.50;91.70;;;;;;4587731;19;20014;-28
2023/03/08 04:47:37;;;;;;;13.77;7.43;;;11.50;91.60;;;;;;4589314;19;20022;-26
2023/03/08 04:49:10;;;;;;;10.47;5.93;;;11.50;91.60;;;;;;4589986;19;20433;-26
2023/03/08 04:50:41;;;;;;;8.10;5.63;;;11.60;91.50;;;;;;4587326;19;20787;-25
2023/03/08 04:52:13;;;;;;;9.80;6.80;;;11.60;91.40;;;;;;4589479;19;20034;-27
2023/03/08 04:53:45;;;;;;;10.77;6.78;;;11.60;91.40;;;;;;4589775;19;20417;-27
2023/03/08 04:55:17;;;;;;;8.63;5.70;;;11.60;91.40;;;;;;4589767;19;20014;-26
2023/03/08 04:56:50;;;;;;;9.43;7.30;;;11.70;91.40;;;;;;4589719;19;20433;-25
2023/03/08 04:58:22;;;;;;;10.80;6.50;;;11.70;91.20;;;;;;4588832;19;20776;-26
2023/03/08 04:59:54;;;;;;;12.10;6.07;;;11.70;91.20;;;;;;4588384;19;20476;-26
2023/03/08 05:01:25;;;;;;;11.35;8.10;;;11.80;91.20;;;;;;4589420;19;20488;-29
2023/03/08 05:02:56;;;;;;;9.85;7.65;;;11.80;91.00;;;;;;4589596;19;20524;-26
2023/03/08 05:04:28;;;;;;;10.35;5.80;;;11.80;90.90;;;;;;4589445;19;20007;-25
2023/03/08 05:05:59;;;;;;;10.00;7.20;;;11.70;90.70;;;;;;4591476;19;20388;-26
2023/03/08 05:07:31;;;;;;;12.93;6.78;;;11.60;90.90;;;;;;4588570;19;20027;-25
2023/03/08 05:09:03;;;;;;;15.17;9.33;;;11.40;90.90;;;;;;4588645;19;20014;-26
2023/03/08 05:10:35;;;;;;;11.43;9.13;;;11.50;91.50;;;;;;4588839;19;20512;-26
2023/03/08 05:12:06;;;;;;;13.93;8.77;;;11.70;91.00;;;;;;4589210;19;20468;-26
2023/03/08 05:13:37;;;;;;;;;;;11.70;90.80;;;;;;4591772;19;20021;-25
2023/03/08 05:15:10;;;;;;;15.63;10.47;;;11.70;90.90;;;;;;4589223;19;19922;-26
2023/03/08 05:16:43;;;;;;;12.57;8.30;;;11.50;90.80;;;;;;4589044;19;21032;-26
2023/03/08 05:18:16;;;;;;;11.33;7.23;;;11.40;91.10;;;;;;4588635;19;20507;-25
2023/03/08 05:19:49;;;;;;;15.97;10.20;;;11.40;91.20;;;;;;4589667;19;20433;-27
2023/03/08 05:21:22;;;;;;;21.30;15.43;;;11.40;91.20;;;;;;4589039;19;21215;-25
2023/03/08 05:22:55;;;;;;;28.80;21.27;;;11.40;91.20;;;;;;4589190;19;20429;-26
2023/03/08 05:24:26;;;;;;;19.52;14.05;;;11.60;91.30;;;;;;4589014;19;20819;-26
2023/03/08 05:26:02;;;;;;;13.90;9.33;;;11.60;91.20;;;;;;4589556;19;20017;-26
2023/03/08 05:27:33;;;;;;;;;;;11.50;91.10;;;;;;4587440;19;21075;-26
2023/03/08 05:29:06;;;;;;;17.95;9.93;;;11.40;91.30;;;;;;4586871;19;20385;-26
2023/03/08 05:30:39;;;;;;;16.00;11.17;;;11.30;91.30;;;;;;4586753;19;20021;-25
2023/03/08 05:32:10;;;;;;;18.02;13.50;;;11.20;91.40;;;;;;4584596;19;21020;-26
2023/03/08 05:33:45;;;;;;;13.33;9.90;;;11.10;91.40;;;;;;4585945;19;20498;-25
2023/03/08 05:35:17;;;;;;;10.47;7.30;;;11.10;91.80;;;;;;4584273;19;20932;-25
2023/03/08 05:36:48;;;;;;;9.60;6.40;;;11.00;91.70;;;;;;4586439;19;20425;-27
2023/03/08 05:38:21;;;;;;;10.88;7.60;;;11.00;91.80;;;;;;4586522;19;20515;-28
2023/03/08 05:39:52;;;;;;;;;;;11.00;91.80;;;;;;4587739;19;20011;-26
2023/03/08 05:41:23;;;;;;;12.43;9.00;;;11.00;91.90;;;;;;4586740;19;19918;-28
2023/03/08 05:42:54;;;;;;;11.15;7.78;;;11.00;91.80;;;;;;4586866;19;20022;-25
2023/03/08 05:44:30;;;;;;;14.67;8.57;;;10.80;91.70;;;;;;4587031;19;20479;-29
2023/03/08 05:46:07;;;;;;;14.13;9.30;;;10.80;91.80;;;;;;4586559;19;20459;-23
2023/03/08 05:47:39;;;;;;;11.87;8.80;;;10.90;92.00;;;;;;4586553;19;20429;-27
2023/03/08 05:49:11;;;;;;;9.97;7.03;;;10.90;92.00;;;;;;4586376;19;20425;-25
2023/03/08 05:50:45;;;;;;;12.60;9.10;;;10.80;91.90;;;;;;4586706;19;20491;-28
2023/03/08 05:52:17;;;;;;;16.20;10.63;;;10.90;91.90;;;;;;4586475;19;21047;-25
2023/03/08 05:53:48;;;;;;;18.13;12.63;;;10.90;92.00;;;;;;4586542;19;20568;-27
2023/03/08 05:55:19;;;;;;;28.60;14.65;;;10.90;91.90;;;;;;4585570;19;20500;-27
2023/03/08 05:56:52;;;;;;;20.60;13.33;;;10.90;91.70;;;;;;4586814;19;20015;-28
2023/03/08 05:58:24;;;;;;;;;;;10.80;91.80;;;;;;4585352;19;20519;-26
2023/03/08 05:59:56;;;;;;;19.53;12.33;;;10.80;91.90;;;;;;4586214;19;20379;-27
2023/03/08 06:01:28;;;;;;;;;;;10.80;92.00;;;;;;4589866;19;20445;-28
2023/03/08 06:03:02;;;;;;;24.53;18.93;;;10.90;92.10;;;;;;4592656;19;19918;-28
2023/03/08 06:04:33;;;;;;;24.67;19.03;;;10.90;91.90;;;;;;4592920;19;20579;-26
2023/03/08 06:06:05;;;;;;;17.33;13.80;;;11.00;92.00;;;;;;4592731;19;20484;-25
2023/03/08 06:07:36;;;;;;;12.70;11.02;;;11.00;91.90;;;;;;4591294;19;20038;-25
2023/03/08 06:09:07;;;;;;;15.98;10.85;;;10.90;91.90;;;;;;4591544;19;20024;-25
2023/03/08 06:10:39;;;;;;;12.57;9.02;;;10.80;92.00;;;;;;4590207;19;20059;-28
2023/03/08 06:12:10;;;;;;;14.95;9.38;;;10.90;92.10;;;;;;4590795;19;20500;-25
2023/03/08 06:13:43;;;;;;;11.67;8.07;;;10.80;92.00;;;;;;4591432;19;20010;-27
2023/03/08 06:15:15;;;;;;;10.60;7.97;;;10.80;92.00;;;;;;4593697;19;20495;-24
2023/03/08 06:16:47;;;;;;;14.13;9.27;;;10.80;92.00;;;;;;4592305;19;20495;-26
2023/03/08 06:18:19;;;;;;;11.87;8.27;;;10.80;92.00;;;;;;4591712;19;20505;-25
2023/03/08 06:19:51;;;;;;;19.77;11.67;;;10.80;92.10;;;;;;4592716;19;20429;-26
2023/03/08 06:21:24;;;;;;;13.17;9.03;;;10.90;92.10;;;;;;4592760;19;20932;-28
2023/03/08 06:22:57;;;;;;;12.17;8.00;;;10.90;92.10;;;;;;4592844;19;20405;-26
2023/03/08 06:24:29;;;;;;;11.73;7.57;;;10.90;92.10;;;;;;4592524;19;20437;-26
2023/03/08 06:26:04;;;;;;;13.13;7.93;;;10.90;92.10;;;;;;4592761;19;20421;-26
2023/03/08 06:27:35;;;;;;;12.55;8.05;;;11.10;92.40;;;;;;4592668;19;20448;-26
2023/03/08 06:29:08;;;;;;;9.50;7.03;;;11.10;92.10;;;;;;4592577;19;20014;-26
2023/03/08 06:30:39;;;;;;;11.95;7.40;;;11.10;91.90;;;;;;4592477;19;21036;-25
2023/03/08 06:32:10;;;;;;;11.73;8.57;;;10.90;92.00;;;;;;4592532;19;20390;-26
2023/03/08 06:33:42;;;;;;;13.93;11.43;;;10.90;92.20;;;;;;4592007;19;20018;-26
2023/03/08 06:35:14;;;;;;;12.47;8.63;;;10.80;92.20;;;;;;4592337;19;20379;-26
2023/03/08 06:36:47;;;;;;;11.70;8.53;;;10.90;92.20;;;;;;4591397;19;20425;-28
2023/03/08 06:38:19;;;;;;;16.70;9.60;;;10.80;92.30;;;;;;4591366;19;20456;-26
2023/03/08 06:39:51;;;;;;;13.30;8.40;;;10.80;92.30;;;;;;4591958;19;20010;-25
2023/03/08 06:41:24;;;;;;;12.23;7.93;;;10.80;92.30;;;;;;4592267;19;20468;-26
2023/03/08 06:42:56;;;;;;;14.13;9.80;;;10.80;92.40;;;;;;4592216;19;20460;-27
2023/03/08 06:44:27;;;;;;;14.82;8.15;;;10.80;92.60;;;;;;4591985;19;20021;-26
2023/03/08 06:46:15;;;;;;;12.63;9.03;;;10.80;92.30;;;;;;4591371;19;20019;-26
2023/03/08 06:47:47;;;;;;;13.03;8.77;;;10.70;92.50;;;;;;4592321;19;20417;-25
2023/03/08 06:49:19;;;;;;;13.67;8.77;;;10.70;92.40;;;;;;4592440;19;20433;-28
2023/03/08 06:50:53;;;;;;;12.80;8.57;;;10.60;92.50;;;;;;4592086;19;20463;-26
2023/03/08 06:52:24;;;;;;;12.25;9.35;;;10.60;92.50;;;;;;4590862;19;20853;-28
2023/03/08 06:53:56;;;;;;;12.13;8.90;;;10.70;92.60;;;;;;4591954;19;20460;-25
2023/03/08 06:55:29;;;;;;;12.30;9.13;;;10.80;92.70;;;;;;4590973;19;20436;-28
2023/03/08 06:57:02;;;;;;;14.63;8.43;;;10.90;92.70;;;;;;4591456;19;20458;-25
2023/03/08 06:58:36;;;;;;;12.63;9.18;;;10.80;92.30;;;;;;4591023;19;20478;-25
2023/03/08 07:00:08;;;;;;;14.43;9.60;;;10.70;92.40;;;;;;4590275;19;20021;-25
2023/03/08 07:01:42;;;;;;;11.23;8.10;;;10.70;92.60;;;;;;4593423;19;20433;-25
2023/03/08 07:03:13;;;;;;;11.43;8.77;;;10.70;92.70;;;;;;4590635;19;20429;-27
2023/03/08 07:04:44;;;;;;;10.93;7.90;;;10.70;92.70;;;;;;4591233;19;20838;-26
2023/03/08 07:06:16;;;;;;;14.80;10.02;;;10.70;92.60;;;;;;4591817;19;20405;-26
2023/03/08 07:07:47;;;;;;;;;;;10.80;92.70;;;;;;4592981;19;20006;-26
2023/03/08 07:09:20;;;;;;;15.63;10.93;;;10.60;92.70;;;;;;4591320;19;19919;-26
2023/03/08 07:10:52;;;;;;;20.73;14.88;;;10.70;92.80;;;;;;4591707;19;20425;-25
2023/03/08 07:12:24;;;;;;;16.40;11.07;;;10.60;92.80;;;;;;4591563;19;20018;-26
2023/03/08 07:13:57;;;;;;;16.17;11.33;;;10.70;92.90;;;;;;4589649;19;20006;-26
2023/03/08 07:15:30;;;;;;;14.27;10.93;;;10.70;92.80;;;;;;4591641;19;20409;-26
2023/03/08 07:17:01;;;;;;;21.45;13.90;;;10.70;93.00;;;;;;4591334;19;20465;-25
2023/03/08 07:18:33;;;;;;;;;;;10.70;93.00;;;;;;4591149;19;20460;-25
2023/03/08 07:20:07;;;;;;;18.53;12.50;;;10.70;92.90;;;;;;4590896;19;20249;-25
2023/03/08 07:21:43;;;;;;;15.93;10.57;;;10.80;92.90;;;;;;4591002;19;20875;-26
2023/03/08 07:23:16;;;;;;;20.47;12.87;;;10.80;92.90;;;;;;4591360;19;20425;-26
2023/03/08 07:24:47;;;;;;;22.65;14.48;;;10.70;92.80;;;;;;4591328;19;20453;-26
2023/03/08 07:26:21;;;;;;;20.00;13.17;;;10.80;92.80;;;;;;4590167;19;20066;-26
2023/03/08 07:27:52;;;;;;;18.63;12.80;;;10.70;93.00;;;;;;4590918;19;20432;-26
2023/03/08 07:29:23;;;;;;;14.98;11.95;;;10.80;93.20;;;;;;4591462;19;20127;-25
2023/03/08 07:30:56;;;;;;;16.13;10.83;;;10.80;93.00;;;;;;4591237;19;20409;-25
2023/03/08 07:32:27;;;;;;;17.80;10.52;;;10.80;93.30;;;;;;4590914;19;20453;-24
2023/03/08 07:34:01;;;;;;;14.00;10.50;;;10.70;93.10;;;;;;4590556;19;20030;-26
2023/03/08 07:35:33;;;;;;;17.13;11.87;;;10.70;93.00;;;;;;4588449;19;20440;-27
2023/03/08 07:37:14;;;;;;;18.43;11.20;;;10.70;93.10;;;;;;4590429;19;20436;-26
2023/03/08 07:38:46;;;;;;;22.77;12.00;;;10.70;93.10;;;;;;4590507;19;20471;-25
2023/03/08 07:40:17;;;;;;;;;;;10.60;93.10;;;;;;4591998;19;21000;-25
2023/03/08 07:41:49;;;;;;;23.93;12.47;;;10.60;93.20;;;;;;4591338;19;19914;-26
2023/03/08 07:43:21;;;;;;;;;;;10.60;93.30;;;;;;4592180;19;20473;-26
2023/03/08 07:44:53;;;;;;;19.63;10.57;;;10.70;93.50;;;;;;4590921;19;20368;-25
2023/03/08 07:46:26;;;;;;;17.03;11.93;;;10.70;93.20;;;;;;4590820;19;20480;-28
2023/03/08 07:48:00;;;;;;;16.37;11.90;;;10.60;93.10;;;;;;4590527;19;20445;-24
2023/03/08 07:49:33;;;;;;;18.10;12.50;;;10.60;93.10;;;;;;4590800;19;20965;-24
2023/03/08 07:51:09;;;;;;;16.70;12.00;;;10.60;93.20;;;;;;4589583;19;20449;-26
2023/03/08 07:52:43;;;;;;;15.07;11.20;;;10.70;93.30;;;;;;4589794;19;20429;-25
2023/03/08 07:54:14;;;;;;;22.52;14.95;;;10.70;93.30;;;;;;4590652;19;20405;-27
2023/03/08 07:55:47;;;;;;;13.03;9.63;;;10.60;93.30;;;;;;4588384;19;20010;-25
2023/03/08 07:57:19;;;;;;;;;;;10.70;93.40;;;;;;4589319;19;21052;-26
2023/03/08 07:58:52;;;;;;;15.27;10.60;;;10.70;93.50;;;;;;4587394;19;20329;-25